Time;durP1;ratioP1;P1;durP2;ratioP2;P2;SDS_P1;SDS_P2;PMS_P1;PMS_P2;Temp;Humidity;BMP_temperature;BMP_pressure;BME280_temperature;BME280_humidity;BME280_pressure;Samples;Min_cycle;Max_cycle;Signal;HPM_P1;HPM_P2
2023/01/21 00:01:31;;;;;;;10.83;8.10;;;;;;;-1.05;98.47;98444.03;5053534;28;20236;-71
2023/01/21 00:03:58;;;;;;;9.67;8.00;;;;;;;-1.10;97.85;98457.53;5054326;28;20641;-71
2023/01/21 00:06:25;;;;;;;13.23;8.13;;;;;;;-1.02;96.77;98462.88;5053445;28;20445;-71
2023/01/21 00:08:51;;;;;;;13.40;8.50;;;;;;;-0.94;99.13;98455.16;5053419;28;20486;-71
2023/01/21 00:11:17;;;;;;;11.47;7.80;;;;;;;-0.95;96.68;98465.78;5053345;28;20488;-72
2023/01/21 00:13:44;;;;;;;11.23;8.27;;;;;;;-0.98;97.09;98459.00;5053049;28;20209;-71
2023/01/21 00:16:11;;;;;;;9.77;7.73;;;;;;;-0.93;96.84;98454.22;5053201;28;20434;-71
2023/01/21 00:18:38;;;;;;;11.87;8.13;;;;;;;-0.90;96.72;98461.75;5052924;28;20444;-71
2023/01/21 00:21:04;;;;;;;9.83;8.00;;;;;;;-0.88;96.25;98467.69;5053242;28;20201;-71
2023/01/21 00:23:30;;;;;;;10.93;8.20;;;;;;;-0.83;96.31;98464.66;5053163;28;20228;-71
2023/01/21 00:26:01;;;;;;;11.60;7.53;;;;;;;-0.86;94.69;98463.13;5053093;28;20205;-71
2023/01/21 00:28:29;;;;;;;10.03;7.83;;;;;;;-0.88;94.85;98467.69;5053183;28;20214;-71
2023/01/21 00:31:00;;;;;;;10.33;7.87;;;;;;;-0.97;93.68;98471.13;5053117;28;20204;-72
2023/01/21 00:33:27;;;;;;;9.87;8.00;;;;;;;-1.05;93.09;98476.19;5053311;28;20205;-72
2023/01/21 00:36:01;;;;;;;9.30;6.97;;;;;;;-0.96;93.48;98467.53;5053230;28;20441;-71
2023/01/21 00:38:28;;;;;;;9.03;7.53;;;;;;;-0.95;94.19;98468.38;5053263;28;20418;-71
2023/01/21 00:41:10;;;;;;;11.53;7.67;;;;;;;-0.99;93.07;98478.25;5053164;28;20208;-71
2023/01/21 00:43:36;;;;;;;13.10;7.47;;;;;;;-1.05;93.47;98470.13;5053483;28;20429;-71
2023/01/21 00:46:03;;;;;;;9.07;7.37;;;;;;;-1.05;94.73;98481.41;5054304;28;20442;-71
2023/01/21 00:48:29;;;;;;;9.43;7.67;;;;;;;-0.91;95.23;98486.22;5056963;28;20478;-71
2023/01/21 00:50:59;;;;;;;11.77;7.20;;;;;;;-0.92;95.25;98487.19;5056952;28;20438;-72
2023/01/21 00:53:26;;;;;;;8.00;6.97;;;;;;;-0.86;94.21;98483.22;5056999;28;20449;-71
2023/01/21 00:55:53;;;;;;;10.07;7.07;;;;;;;-0.87;93.82;98486.75;5056693;28;20888;-71
2023/01/21 00:58:19;;;;;;;9.07;6.43;;;;;;;-0.93;93.57;98485.53;5056905;28;20437;-71
2023/01/21 01:00:46;;;;;;;9.03;6.17;;;;;;;-1.08;92.17;98484.28;5056433;28;20212;-71
2023/01/21 01:03:12;;;;;;;9.90;6.57;;;;;;;-1.03;93.68;98484.69;5056731;28;20236;-72
2023/01/21 01:05:38;;;;;;;14.87;7.53;;;;;;;-1.05;91.96;98489.25;5056906;28;20212;-71
2023/01/21 01:08:05;;;;;;;8.93;7.13;;;;;;;-1.09;92.60;98487.84;5056696;28;20438;-72
2023/01/21 01:10:31;;;;;;;9.50;6.80;;;;;;;-1.10;92.03;98488.00;5056690;28;20448;-72
2023/01/21 01:12:57;;;;;;;7.60;6.43;;;;;;;-1.09;93.19;98487.03;5056263;28;20470;-71
2023/01/21 01:15:24;;;;;;;8.73;6.50;;;;;;;-1.12;92.31;98495.94;5056529;28;20442;-71
2023/01/21 01:17:50;;;;;;;8.73;6.67;;;;;;;-0.99;93.78;98493.91;5056595;28;20205;-72
2023/01/21 01:20:17;;;;;;;9.53;6.37;;;;;;;-1.02;92.86;98486.38;5056491;28;20434;-72
2023/01/21 01:22:43;;;;;;;7.00;6.07;;;;;;;-1.05;91.86;98494.47;5056629;28;20221;-71
2023/01/21 01:25:09;;;;;;;7.77;6.23;;;;;;;-1.03;93.38;98489.91;5056652;28;20438;-72
2023/01/21 01:27:36;;;;;;;9.17;7.17;;;;;;;-1.05;92.92;98493.63;5056340;28;20208;-71
2023/01/21 01:30:04;;;;;;;8.60;6.10;;;;;;;-1.03;94.10;98497.75;5056186;28;20478;-71
2023/01/21 01:32:30;;;;;;;9.20;6.63;;;;;;;-1.11;92.42;98496.78;5056226;28;20237;-71
2023/01/21 01:34:57;;;;;;;7.43;6.50;;;;;;;-1.09;92.57;98505.28;5056140;28;20532;-71
2023/01/21 01:37:23;;;;;;;9.93;6.33;;;;;;;-1.05;92.93;98504.88;5056206;28;20206;-72
2023/01/21 01:39:49;;;;;;;9.57;6.10;;;;;;;-1.04;93.32;98500.50;5056131;28;20201;-71
2023/01/21 01:42:16;;;;;;;7.63;5.83;;;;;;;-1.04;93.20;98503.91;5055953;28;20232;-72
2023/01/21 01:45:15;;;;;;;8.67;6.23;;;;;;;-1.13;91.67;98503.94;5056037;28;20450;-72
2023/01/21 01:47:46;;;;;;;7.73;5.87;;;;;;;-1.19;92.19;98507.06;5048281;28;20209;-71
2023/01/21 01:50:17;;;;;;;8.93;6.30;;;;;;;-1.22;92.20;98513.38;5055906;28;20473;-71
2023/01/21 01:52:44;;;;;;;9.07;6.00;;;;;;;-1.26;92.64;98508.56;5055983;28;20227;-71
2023/01/21 01:55:14;;;;;;;8.13;6.40;;;;;;;-1.32;94.08;98509.94;5054338;28;20446;-72
2023/01/21 01:57:45;;;;;;;10.10;6.57;;;;;;;-1.40;93.95;98514.97;5055331;28;20546;-72
2023/01/21 02:00:13;;;;;;;7.97;6.23;;;;;;;-1.43;95.52;98525.69;5055719;28;20745;-72
2023/01/21 02:02:40;;;;;;;9.60;6.63;;;;;;;-1.50;94.27;98521.13;5056373;28;20464;-72
2023/01/21 02:05:09;;;;;;;10.50;7.53;;;;;;;-1.49;95.40;98530.63;5055611;28;20449;-72
2023/01/21 02:07:43;;;;;;;9.20;7.30;;;;;;;-1.56;94.75;98527.72;5055600;28;20491;-71
2023/01/21 02:10:12;;;;;;;9.17;7.00;;;;;;;-1.66;94.00;98529.44;5055473;28;20462;-72
2023/01/21 02:12:42;;;;;;;13.60;7.83;;;;;;;-1.66;94.24;98529.44;5055054;28;20478;-71
2023/01/21 02:15:09;;;;;;;10.30;7.13;;;;;;;-1.74;95.13;98537.09;5055415;28;20434;-71
2023/01/21 02:17:58;;;;;;;10.30;7.53;;;;;;;-1.76;95.37;98539.00;5055360;28;20452;-71
2023/01/21 02:20:41;;;;;;;11.63;7.37;;;;;;;-1.83;96.11;98535.28;5055369;28;20419;-72
2023/01/21 02:23:22;;;;;;;8.97;7.40;;;;;;;-1.89;97.71;98533.19;5055246;28;20454;-71
2023/01/21 02:26:01;;;;;;;9.87;7.50;;;;;;;-1.86;98.02;98529.47;5054923;28;20433;-71
2023/01/21 02:28:50;;;;;;;10.67;7.23;;;;;;;-1.79;98.92;98541.88;5055164;28;20426;-71
2023/01/21 02:31:35;;;;;;;9.23;7.07;;;;;;;-1.86;98.43;98547.72;5055135;28;20819;-72
2023/01/21 02:34:13;;;;;;;10.47;7.17;;;;;;;-1.92;98.34;98545.66;5053871;28;20427;-71
2023/01/21 02:36:54;;;;;;;11.53;7.73;;;;;;;-1.95;100.00;98551.09;5053595;28;20429;-72
2023/01/21 02:39:52;;;;;;;12.50;7.83;;;;;;;-2.05;100.00;98548.47;5055072;28;20426;-71
2023/01/21 02:42:21;;;;;;;10.43;7.97;;;;;;;-2.03;100.00;98550.94;5055139;28;20465;-72
2023/01/21 02:44:51;;;;;;;10.67;7.80;;;;;;;-2.09;100.00;98561.84;5054602;28;20793;-72
2023/01/21 02:47:52;;;;;;;14.03;9.23;;;;;;;-2.10;100.00;98555.00;5054579;28;20450;-72
2023/01/21 02:50:30;;;;;;;11.83;8.83;;;;;;;-2.22;100.00;98556.84;5053706;28;20462;-71
2023/01/21 02:53:01;;;;;;;11.73;8.50;;;;;;;-2.27;100.00;98553.81;5054670;28;20465;-72
2023/01/21 02:55:35;;;;;;;11.27;8.87;;;;;;;-2.29;100.00;98562.69;5054650;28;20445;-71
2023/01/21 02:58:07;;;;;;;11.93;8.17;;;;;;;-2.20;100.00;98554.13;5054633;28;20782;-72
2023/01/21 03:01:03;;;;;;;12.17;9.00;;;;;;;-2.20;100.00;98561.94;5054605;28;20426;-71
2023/01/21 03:03:41;;;;;;;12.20;8.70;;;;;;;-2.24;100.00;98561.38;5054579;28;20418;-71
2023/01/21 03:06:35;;;;;;;11.77;8.63;;;;;;;-2.25;100.00;98562.31;5054149;28;20805;-72
2023/01/21 03:09:27;;;;;;;12.97;8.63;;;;;;;-2.39;100.00;98570.44;5053539;28;20458;-71
2023/01/21 03:12:29;;;;;;;12.77;8.73;;;;;;;-2.38;100.00;98574.72;5054152;28;20827;-71
2023/01/21 03:17:48;;;;;;;13.53;9.07;;;;;;;-2.49;100.00;98569.53;5054038;28;20901;-71
2023/01/21 03:20:26;;;;;;;13.23;9.33;;;;;;;-2.47;100.00;98572.03;5054247;28;20429;-72
2023/01/21 03:22:59;;;;;;;12.47;9.37;;;;;;;-2.42;100.00;98573.31;5053834;28;20458;-71
2023/01/21 03:25:28;;;;;;;13.40;9.83;;;;;;;-2.45;100.00;98573.53;5054151;28;20422;-71
2023/01/21 03:27:56;;;;;;;13.13;9.43;;;;;;;-2.47;100.00;98569.41;5054659;28;20445;-71
2023/01/21 03:30:25;;;;;;;10.97;8.63;;;;;;;-2.54;100.00;98571.69;5053107;28;20474;-71
2023/01/21 03:32:54;;;;;;;13.00;9.27;;;;;;;-2.62;100.00;98576.69;5054225;28;20473;-71
2023/01/21 03:35:32;;;;;;;10.40;8.93;;;;;;;-2.69;100.00;98574.72;5054000;28;20442;-71
2023/01/21 03:38:08;;;;;;;10.33;8.53;;;;;;;-2.71;100.00;98579.22;5053021;28;20845;-71
2023/01/21 03:40:41;;;;;;;12.73;9.17;;;;;;;-2.74;100.00;98577.72;5054636;28;20418;-71
2023/01/21 03:43:08;;;;;;;12.17;9.33;;;;;;;-2.79;100.00;98577.25;5052281;28;20458;-71
2023/01/21 03:45:34;;;;;;;15.37;9.53;;;;;;;-2.75;100.00;98578.63;5053087;28;20442;-71
2023/01/21 03:48:08;;;;;;;14.23;9.20;;;;;;;-2.78;100.00;98581.50;5053672;28;20445;-71
2023/01/21 03:50:44;;;;;;;12.87;9.40;;;;;;;-2.79;100.00;98577.25;5053765;28;20465;-71
2023/01/21 03:53:11;;;;;;;14.83;10.20;;;;;;;-2.89;100.00;98576.31;5053641;28;20468;-71
2023/01/21 03:55:37;;;;;;;15.07;10.03;;;;;;;-2.94;100.00;98578.47;5053589;28;20438;-71
2023/01/21 03:58:03;;;;;;;14.63;9.20;;;;;;;-2.89;100.00;98580.72;5054285;28;20442;-71
2023/01/21 04:00:30;;;;;;;13.80;9.97;;;;;;;-2.88;100.00;98591.00;5053517;28;20430;-71
2023/01/21 04:02:56;;;;;;;14.07;10.07;;;;;;;-2.94;100.00;98585.47;5053437;28;20458;-71
2023/01/21 04:05:23;;;;;;;11.20;10.00;;;;;;;-2.89;100.00;98585.91;5053505;28;20445;-71
2023/01/21 04:07:49;;;;;;;12.87;9.83;;;;;;;-2.89;100.00;98589.31;5053198;28;20805;-71
2023/01/21 04:10:16;;;;;;;15.27;10.47;;;;;;;-2.88;100.00;98587.56;5053229;28;20482;-71
2023/01/21 04:12:42;;;;;;;13.03;10.33;;;;;;;-2.90;100.00;98581.63;5053051;28;20478;-71
2023/01/21 04:15:09;;;;;;;14.07;10.43;;;;;;;-3.00;100.00;98588.53;5053264;28;20434;-71
2023/01/21 04:17:36;;;;;;;11.37;8.77;;;;;;;-2.99;100.00;98590.22;5053168;28;20449;-71
2023/01/21 04:20:02;;;;;;;13.13;9.87;;;;;;;-2.98;100.00;98587.44;5055042;28;20452;-71
2023/01/21 04:22:29;;;;;;;13.67;10.07;;;;;;;-3.00;100.00;98598.94;5059862;28;20519;-71
2023/01/21 04:24:55;;;;;;;14.57;10.00;;;;;;;-3.32;100.00;98540.84;5059940;28;20438;-71
2023/01/21 04:27:21;;;;;;;12.93;10.03;;;;;;;-2.96;100.00;98602.94;5059987;28;20441;-71
2023/01/21 04:29:48;;;;;;;13.87;9.67;;;;;;;-2.92;100.00;98604.34;5059816;28;20841;-71
2023/01/21 04:32:14;;;;;;;17.20;9.67;;;;;;;-2.85;100.00;98605.53;5059709;28;20461;-71
2023/01/21 04:34:40;;;;;;;12.40;9.17;;;;;;;-2.77;100.00;98609.16;5059444;28;20438;-71
2023/01/21 04:37:07;;;;;;;16.17;9.50;;;;;;;-2.74;100.00;98608.94;5059608;28;20796;-71
2023/01/21 04:39:33;;;;;;;12.70;8.83;;;;;;;-2.83;100.00;98601.84;5060157;28;20460;-71
2023/01/21 04:41:59;;;;;;;11.90;7.90;;;;;;;-2.72;100.00;98601.81;5059397;28;20462;-71
2023/01/21 04:44:26;;;;;;;10.97;6.70;;;;;;;-2.77;100.00;98606.56;5059594;28;20445;-71
2023/01/21 04:46:52;;;;;;;9.80;8.03;;;;;;;-2.90;100.00;98607.66;5059542;28;20448;-71
2023/01/21 04:49:18;;;;;;;14.47;7.87;;;;;;;-2.82;100.00;98608.72;5059383;28;20477;-71
2023/01/21 04:51:45;;;;;;;11.40;8.73;;;;;;;-2.71;100.00;98608.66;5059466;28;20468;-71
2023/01/21 04:54:11;;;;;;;13.17;8.73;;;;;;;-2.69;100.00;98608.53;5060084;28;20441;-71
2023/01/21 04:56:38;;;;;;;11.50;7.90;;;;;;;-2.75;100.00;98612.47;5059693;28;20472;-71
2023/01/21 04:59:04;;;;;;;9.77;8.00;;;;;;;-2.75;100.00;98624.66;5059635;28;20441;-71
2023/01/21 05:01:31;;;;;;;10.57;7.17;;;;;;;-2.97;100.00;98620.34;5059303;28;21007;-71
2023/01/21 05:03:57;;;;;;;10.43;7.37;;;;;;;-2.96;100.00;98614.19;5059077;28;20448;-71
2023/01/21 05:06:23;;;;;;;11.77;7.97;;;;;;;-2.91;100.00;98616.41;5059324;28;20446;-71
2023/01/21 05:08:50;;;;;;;13.80;8.40;;;;;;;-2.92;100.00;98618.19;5058880;28;20937;-71
2023/01/21 05:11:19;;;;;;;8.77;7.10;;;;;;;-2.88;100.00;98621.38;5058865;28;21019;-71
2023/01/21 05:13:46;;;;;;;12.03;8.20;;;;;;;-2.90;100.00;98618.06;5058872;28;20457;-71
2023/01/21 05:16:13;;;;;;;9.53;6.53;;;;;;;-2.88;100.00;98626.59;5060004;28;20445;-71
2023/01/21 05:18:40;;;;;;;11.10;8.03;;;;;;;-2.94;100.00;98630.47;5059322;28;20453;-71
2023/01/21 05:21:07;;;;;;;10.93;8.57;;;;;;;-2.95;100.00;98622.78;5059081;28;20819;-71
2023/01/21 05:23:33;;;;;;;13.90;7.87;;;;;;;-3.00;100.00;98630.13;5059114;28;20445;-71
2023/01/21 05:25:59;;;;;;;12.23;8.60;;;;;;;-2.96;100.00;98634.16;5059764;28;20541;-71
2023/01/21 05:28:26;;;;;;;9.83;8.10;;;;;;;-2.82;100.00;98626.09;5059365;28;20438;-71
2023/01/21 05:30:52;;;;;;;10.40;7.83;;;;;;;-3.01;100.00;98633.69;5058971;28;20481;-71
2023/01/21 05:33:22;;;;;;;10.47;7.53;;;;;;;-2.90;100.00;98631.06;5055794;28;20430;-72
2023/01/21 05:35:49;;;;;;;11.97;8.53;;;;;;;-2.92;100.00;98635.56;5056095;28;20422;-71
2023/01/21 05:38:15;;;;;;;10.63;8.10;;;;;;;-2.81;100.00;98635.53;5055525;28;20446;-71
2023/01/21 05:40:41;;;;;;;10.80;7.47;;;;;;;-3.02;100.00;98635.47;5055827;28;20430;-71
2023/01/21 05:43:08;;;;;;;8.67;7.33;;;;;;;-2.97;100.00;98641.16;5055589;28;20469;-71
2023/01/21 05:45:34;;;;;;;10.53;7.47;;;;;;;-2.99;100.00;98640.44;5055525;28;20445;-71
2023/01/21 05:48:00;;;;;;;8.50;7.40;;;;;;;-3.09;100.00;98649.91;5055653;28;20442;-71
2023/01/21 05:50:27;;;;;;;9.90;6.90;;;;;;;-3.11;100.00;98658.78;5055292;28;20470;-71
2023/01/21 05:52:53;;;;;;;11.83;8.23;;;;;;;-2.97;100.00;98655.91;5055631;28;20484;-71
2023/01/21 05:55:19;;;;;;;12.37;8.20;;;;;;;-3.14;100.00;98657.25;5055667;28;20434;-71
2023/01/21 05:57:46;;;;;;;13.00;8.33;;;;;;;-3.03;100.00;98656.41;5055662;28;20438;-71
2023/01/21 06:00:13;;;;;;;10.70;8.03;;;;;;;-3.01;100.00;98662.31;5055615;28;20438;-71
2023/01/21 06:02:39;;;;;;;13.40;8.97;;;;;;;-3.08;100.00;98663.75;5055501;28;20552;-71
2023/01/21 06:05:06;;;;;;;13.50;10.17;;;;;;;-3.10;100.00;98661.25;5055639;28;20430;-71
2023/01/21 06:07:32;;;;;;;14.37;10.23;;;;;;;-3.08;100.00;98669.75;5055287;28;20571;-71
2023/01/21 06:09:58;;;;;;;13.37;10.37;;;;;;;-2.98;100.00;98672.47;5054851;28;20474;-71
2023/01/21 06:12:25;;;;;;;12.43;9.17;;;;;;;-3.04;100.00;98671.19;5054753;28;20482;-71
2023/01/21 06:14:51;;;;;;;14.53;10.10;;;;;;;-3.06;100.00;98675.69;5055134;28;20442;-71
2023/01/21 06:17:17;;;;;;;14.13;10.17;;;;;;;-3.01;100.00;98667.50;5055027;28;20438;-71
2023/01/21 06:19:44;;;;;;;14.97;10.83;;;;;;;-3.08;100.00;98672.34;5054947;28;20436;-71
2023/01/21 06:22:15;;;;;;;14.67;11.30;;;;;;;-3.08;100.00;98676.75;5055048;28;20454;-71
2023/01/21 06:24:41;;;;;;;21.43;12.33;;;;;;;-3.04;100.00;98681.56;5055093;28;20422;-71
2023/01/21 06:27:08;;;;;;;16.00;11.63;;;;;;;-3.02;100.00;98687.47;5054867;28;20940;-71
2023/01/21 06:29:34;;;;;;;20.97;13.47;;;;;;;-3.00;100.00;98683.00;5054797;28;20929;-71
2023/01/21 06:32:00;;;;;;;19.47;14.27;;;;;;;-2.97;100.00;98684.53;5054963;28;20454;-71
2023/01/21 06:34:27;;;;;;;20.57;13.93;;;;;;;-2.98;100.00;98688.09;5055048;28;20442;-71
2023/01/21 06:36:53;;;;;;;23.47;17.47;;;;;;;-3.09;100.00;98695.88;5054839;28;20442;-71
2023/01/21 06:39:19;;;;;;;21.13;16.73;;;;;;;-3.11;100.00;98697.78;5054956;28;20434;-71
2023/01/21 06:41:46;;;;;;;23.90;16.57;;;;;;;-2.99;100.00;98708.06;5054476;28;20458;-71
2023/01/21 06:44:12;;;;;;;25.30;18.50;;;;;;;-3.15;100.00;98710.19;5053535;28;20442;-71
2023/01/21 06:46:38;;;;;;;26.60;18.77;;;;;;;-3.15;100.00;98715.41;5054378;28;20438;-71
2023/01/21 06:49:05;;;;;;;23.57;18.30;;;;;;;-3.12;100.00;98720.34;5054269;28;20438;-71
2023/01/21 06:51:31;;;;;;;26.47;18.70;;;;;;;-3.18;100.00;98723.44;5054084;28;20485;-71
2023/01/21 06:53:57;;;;;;;24.73;18.07;;;;;;;-2.86;100.00;98723.53;5054529;28;20441;-71
2023/01/21 06:56:24;;;;;;;24.73;18.47;;;;;;;-3.00;100.00;98719.41;5054381;28;20438;-71
2023/01/21 06:58:50;;;;;;;26.93;19.43;;;;;;;-2.92;100.00;98724.84;5054945;28;20454;-71
2023/01/21 07:01:16;;;;;;;29.63;19.83;;;;;;;-2.94;100.00;98731.13;5054185;28;20838;-71
2023/01/21 07:03:43;;;;;;;24.70;17.43;;;;;;;-2.90;100.00;98738.56;5054421;28;20464;-71
2023/01/21 07:06:09;;;;;;;29.40;19.57;;;;;;;-3.01;100.00;98735.13;5054261;28;20448;-71
2023/01/21 07:08:36;;;;;;;28.27;19.27;;;;;;;-2.98;100.00;98743.50;5054275;28;20438;-71
2023/01/21 07:11:02;;;;;;;28.63;19.83;;;;;;;-3.08;100.00;98744.38;5054030;28;20504;-71
2023/01/21 07:13:28;;;;;;;27.77;20.70;;;;;;;-3.00;100.00;98752.38;5053944;28;20453;-71
2023/01/21 07:16:01;;;;;;;28.13;19.33;;;;;;;-2.88;100.00;98752.28;5054297;28;20438;-71
2023/01/21 07:18:28;;;;;;;27.57;19.10;;;;;;;-3.00;100.00;98757.59;5053930;28;20446;-71
2023/01/21 07:20:55;;;;;;;26.27;19.27;;;;;;;-2.95;100.00;98769.31;5053944;28;20453;-71
2023/01/21 07:23:21;;;;;;;27.27;18.40;;;;;;;-2.88;100.00;98778.31;5053971;28;20438;-71
2023/01/21 07:25:48;;;;;;;25.77;17.63;;;;;;;-2.94;100.00;98773.56;5053872;28;20448;-71
2023/01/21 07:28:15;;;;;;;27.60;18.67;;;;;;;-3.03;100.00;98786.44;5053859;28;20434;-71
2023/01/21 07:30:41;;;;;;;27.80;18.40;;;;;;;-3.23;100.00;98795.75;5053890;28;20485;-71
2023/01/21 07:33:08;;;;;;;26.13;18.83;;;;;;;-3.24;100.00;98795.88;5053866;28;20450;-71
2023/01/21 07:35:35;;;;;;;30.10;20.53;;;;;;;-3.28;100.00;98797.88;5053735;28;20444;-71
2023/01/21 07:38:02;;;;;;;26.13;17.83;;;;;;;-3.14;100.00;98802.88;5053428;28;20925;-71
2023/01/21 07:40:28;;;;;;;24.33;17.30;;;;;;;-3.10;100.00;98798.25;5053535;28;20435;-71
2023/01/21 07:42:55;;;;;;;26.83;18.73;;;;;;;-3.20;100.00;98800.69;5053531;28;20465;-71
2023/01/21 07:45:23;;;;;;;28.60;19.23;;;;;;;-3.18;100.00;98801.44;5053189;28;20442;-71
2023/01/21 07:47:49;;;;;;;27.33;18.20;;;;;;;-3.12;100.00;98802.75;5053589;28;20438;-71
2023/01/21 07:50:16;;;;;;;28.30;18.97;;;;;;;-3.13;100.00;98801.06;5053508;28;20481;-71
2023/01/21 07:52:42;;;;;;;26.23;18.17;;;;;;;-3.08;100.00;98811.97;5053406;28;20466;-71
2023/01/21 07:55:10;;;;;;;27.03;18.87;;;;;;;-3.20;100.00;98803.31;5052516;28;20955;-71
2023/01/21 07:57:36;;;;;;;26.10;18.13;;;;;;;-2.96;100.00;98811.88;5053106;28;20878;-71
2023/01/21 08:00:03;;;;;;;27.87;17.93;;;;;;;-2.88;100.00;98808.69;5053461;28;20464;-71
2023/01/21 08:02:30;;;;;;;26.57;18.50;;;;;;;-2.94;100.00;98801.34;5053104;28;20814;-71
2023/01/21 08:04:56;;;;;;;26.40;18.87;;;;;;;-2.83;100.00;98802.19;5053242;28;20775;-71
2023/01/21 08:07:23;;;;;;;26.87;17.63;;;;;;;-2.62;100.00;98800.50;5053006;28;20438;-71
2023/01/21 08:09:49;;;;;;;26.73;19.13;;;;;;;-2.67;100.00;98797.44;5053176;28;20450;-71
2023/01/21 08:12:15;;;;;;;27.33;17.97;;;;;;;-2.69;100.00;98809.75;5053121;28;20496;-71
2023/01/21 08:14:42;;;;;;;25.87;18.73;;;;;;;-2.55;100.00;98812.13;5053249;28;20449;-71
2023/01/21 08:17:08;;;;;;;26.47;19.33;;;;;;;-2.62;100.00;98813.53;5053929;28;20442;-71
2023/01/21 08:19:34;;;;;;;28.37;17.77;;;;;;;-2.24;100.00;98806.16;5053154;28;20438;-71
2023/01/21 08:22:01;;;;;;;27.47;17.57;;;;;;;-2.27;100.00;98811.59;5052961;28;20458;-71
2023/01/21 08:24:27;;;;;;;26.53;18.93;;;;;;;-2.46;100.00;98813.16;5053209;28;20445;-71
2023/01/21 08:26:58;;;;;;;27.17;18.30;;;;;;;-2.39;100.00;98807.34;5052934;28;20449;-71
2023/01/21 08:29:24;;;;;;;27.57;17.47;;;;;;;-2.31;100.00;98802.38;5052895;28;20426;-71
2023/01/21 08:31:52;;;;;;;24.73;18.27;;;;;;;-2.13;100.00;98810.50;5053124;28;20477;-71
2023/01/21 08:34:19;;;;;;;24.87;16.27;;;;;;;-1.97;100.00;98809.19;5052709;28;20491;-71
2023/01/21 08:36:45;;;;;;;23.73;16.90;;;;;;;-2.10;100.00;98807.66;5052769;28;20464;-71
2023/01/21 08:39:14;;;;;;;25.30;17.23;;;;;;;-2.20;100.00;98804.97;5052808;28;20445;-71
2023/01/21 08:41:40;;;;;;;24.87;17.47;;;;;;;-2.06;100.00;98809.06;5052736;28;20872;-71
2023/01/21 08:44:07;;;;;;;23.83;17.33;;;;;;;-1.85;100.00;98804.75;5052653;28;20442;-70
2023/01/21 08:46:34;;;;;;;22.47;15.80;;;;;;;-1.87;100.00;98806.66;5052836;28;20434;-71
2023/01/21 08:49:00;;;;;;;25.30;17.60;;;;;;;-2.12;100.00;98810.38;5052788;28;20437;-71
2023/01/21 08:51:26;;;;;;;26.50;16.00;;;;;;;-2.41;100.00;98806.66;5052561;28;20481;-71
2023/01/21 08:53:53;;;;;;;23.77;16.90;;;;;;;-2.32;100.00;98805.09;5052974;28;20442;-71
2023/01/21 08:56:19;;;;;;;28.13;19.43;;;;;;;-2.17;100.00;98809.94;5052686;28;20442;-71
2023/01/21 08:58:46;;;;;;;24.20;16.40;;;;;;;-2.47;100.00;98807.16;5052375;28;20499;-71
2023/01/21 09:01:15;;;;;;;23.43;17.23;;;;;;;-2.46;100.00;98816.59;5052460;28;20458;-71
2023/01/21 09:03:41;;;;;;;23.90;16.63;;;;;;;-2.17;100.00;98807.31;5052549;28;20933;-71
2023/01/21 09:06:08;;;;;;;24.30;14.97;;;;;;;-2.35;100.00;98807.97;5052854;28;20437;-71
2023/01/21 09:08:35;;;;;;;27.60;18.80;;;;;;;-2.17;100.00;98802.13;5056282;28;20438;-71
2023/01/21 09:11:03;;;;;;;28.33;18.07;;;;;;;-1.80;100.00;98800.81;5056526;28;20485;-71
2023/01/21 09:13:37;;;;;;;23.47;15.67;;;;;;;-1.82;100.00;98805.34;5056144;28;20828;-71
2023/01/21 09:16:12;;;;;;;27.23;16.43;;;;;;;-1.71;100.00;98807.88;5056415;28;20448;-71
2023/01/21 09:18:38;;;;;;;22.37;15.20;;;;;;;-1.63;100.00;98804.69;5056612;28;20433;-71
2023/01/21 09:21:06;;;;;;;20.70;16.27;;;;;;;-1.57;100.00;98810.19;5055870;28;20438;-71
2023/01/21 09:23:33;;;;;;;19.43;14.67;;;;;;;-1.58;100.00;98811.16;5056073;28;20441;-71
2023/01/21 09:26:06;;;;;;;23.13;15.53;;;;;;;-1.67;100.00;98809.28;5056129;28;20445;-71
2023/01/21 09:28:35;;;;;;;19.80;14.57;;;;;;;-1.51;100.00;98814.09;5056377;28;20437;-71
2023/01/21 09:31:04;;;;;;;20.43;15.37;;;;;;;-1.47;100.00;98811.13;5055783;28;20489;-71
2023/01/21 09:33:32;;;;;;;21.60;15.23;;;;;;;-1.46;100.00;98825.81;5055351;28;20446;-71
2023/01/21 09:36:01;;;;;;;23.60;15.27;;;;;;;-1.37;100.00;98824.22;5056174;28;20441;-71
2023/01/21 09:38:28;;;;;;;26.93;15.80;;;;;;;-1.42;100.00;98822.00;5055620;28;20444;-71
2023/01/21 09:40:57;;;;;;;25.00;15.37;;;;;;;-1.69;100.00;98834.69;5055901;28;20434;-71
2023/01/21 09:43:33;;;;;;;22.40;15.03;;;;;;;-1.45;100.00;98827.47;5055793;28;20441;-71
2023/01/21 09:46:02;;;;;;;20.87;14.60;;;;;;;-1.27;100.00;98832.94;5054765;28;20437;-71
2023/01/21 09:48:36;;;;;;;23.67;15.43;;;;;;;-1.41;100.00;98838.47;5055696;28;20438;-71
2023/01/21 09:51:09;;;;;;;20.83;14.93;;;;;;;-1.42;100.00;98842.03;5055527;28;20867;-71
2023/01/21 09:53:48;;;;;;;23.47;15.37;;;;;;;-1.24;100.00;98838.75;5055641;28;20205;-71
2023/01/21 09:56:39;;;;;;;25.73;15.53;;;;;;;-1.25;100.00;98841.47;5055679;28;20426;-71
2023/01/21 09:59:43;;;;;;;27.03;16.27;;;;;;;-1.04;100.00;98842.31;5055173;28;20815;-71
2023/01/21 10:02:24;;;;;;;23.27;15.60;;;;;;;-0.81;100.00;98846.44;5054295;28;20454;-71
2023/01/21 10:05:16;;;;;;;22.83;15.63;;;;;;;-1.01;100.00;98839.44;5054487;28;20445;-71
2023/01/21 10:07:50;;;;;;;23.97;15.63;;;;;;;-1.15;100.00;98837.97;5055523;28;20433;-71
2023/01/21 10:10:19;;;;;;;24.47;14.33;;;;;;;-1.06;100.00;98836.38;5054347;28;20430;-71
2023/01/21 10:13:33;;;;;;;21.80;15.20;;;;;;;-0.78;100.00;98835.72;5055072;28;20478;-71
2023/01/21 10:16:09;;;;;;;18.00;12.23;;;;;;;-0.59;100.00;98827.97;5054877;28;20946;-71
2023/01/21 10:18:38;;;;;;;20.33;14.20;;;;;;;-0.61;100.00;98828.13;5054837;28;20851;-71
2023/01/21 10:21:19;;;;;;;21.50;14.20;;;;;;;-0.70;100.00;98830.69;5054996;28;20430;-71
2023/01/21 10:23:51;;;;;;;19.27;14.20;;;;;;;-1.07;100.00;98837.34;5055200;28;20422;-71
2023/01/21 10:26:18;;;;;;;19.33;12.50;;;;;;;-0.85;100.00;98838.03;5055103;28;20445;-71
2023/01/21 10:28:50;;;;;;;18.37;12.40;;;;;;;-0.95;100.00;98836.34;5054841;28;20444;-71
2023/01/21 10:31:23;;;;;;;22.13;14.80;;;;;;;-0.85;100.00;98840.63;5054749;28;20508;-71
2023/01/21 10:33:50;;;;;;;20.20;13.87;;;;;;;-0.93;100.00;98837.84;5054780;28;20441;-71
2023/01/21 10:36:30;;;;;;;21.53;15.37;;;;;;;-0.82;100.00;98837.78;5054362;28;20448;-71
2023/01/21 10:39:19;;;;;;;21.07;15.60;;;;;;;-1.24;100.00;98841.34;5054751;28;20445;-71
2023/01/21 10:42:22;;;;;;;22.97;16.33;;;;;;;-0.93;100.00;98834.41;5054268;28;20458;-71
2023/01/21 10:45:07;;;;;;;22.27;15.47;;;;;;;-0.91;100.00;98835.09;5053007;28;20422;-71
2023/01/21 10:47:55;;;;;;;22.13;15.30;;;;;;;-0.70;100.00;98836.75;5054328;28;20525;-71
2023/01/21 10:50:55;;;;;;;21.50;15.57;;;;;;;-0.75;100.00;98827.63;5054310;28;20419;-71
2023/01/21 10:53:30;;;;;;;19.97;14.57;;;;;;;-1.00;100.00;98835.84;5054465;28;20422;-71
2023/01/21 10:56:11;;;;;;;25.73;15.60;;;;;;;-0.73;100.00;98828.31;5054312;28;20429;-71
2023/01/21 10:58:41;;;;;;;25.90;15.63;;;;;;;-0.63;100.00;98832.63;5054177;28;20422;-71
2023/01/21 11:01:16;;;;;;;22.17;15.50;;;;;;;-0.68;100.00;98826.16;5054193;28;20423;-72
2023/01/21 11:03:47;;;;;;;25.10;16.17;;;;;;;-0.75;100.00;98831.09;5054539;28;20430;-71
2023/01/21 11:06:17;;;;;;;23.00;14.43;;;;;;;-0.64;100.00;98820.56;5054339;28;20434;-71
2023/01/21 11:08:47;;;;;;;22.00;15.33;;;;;;;-0.46;100.00;98821.59;5054151;28;20445;-71
2023/01/21 11:11:26;;;;;;;21.10;15.17;;;;;;;-0.48;100.00;98825.28;5054209;28;20486;-71
2023/01/21 11:13:54;;;;;;;21.83;14.57;;;;;;;-0.47;100.00;98821.72;5053743;28;20446;-71
2023/01/21 11:16:39;;;;;;;21.60;15.17;;;;;;;-0.67;100.00;98826.03;5053729;28;20442;-71
2023/01/21 11:19:07;;;;;;;22.90;15.63;;;;;;;-0.39;100.00;98824.50;5053712;28;20429;-71
2023/01/21 11:21:33;;;;;;;23.40;14.97;;;;;;;-0.56;100.00;98827.72;5053569;28;20456;-71
2023/01/21 11:24:03;;;;;;;22.67;15.53;;;;;;;-0.59;100.00;98820.97;5053649;28;20438;-71
2023/01/21 11:26:35;;;;;;;18.17;13.17;;;;;;;-0.72;100.00;98822.97;5053824;28;20496;-71
2023/01/21 11:29:09;;;;;;;16.90;11.97;;;;;;;-0.74;100.00;98818.84;5052875;28;20925;-71
2023/01/21 11:31:36;;;;;;;21.07;13.83;;;;;;;-0.77;100.00;98816.53;5053130;28;20521;-71
2023/01/21 11:34:10;;;;;;;19.97;13.40;;;;;;;-0.96;100.00;98809.41;5053437;28;20529;-71